Terminal Aerodrome Forecast
Issued by NWS Newport/Morehead City, NC

Current Version | Previous Version | Text Only | Print | Product List | Glossary Off
Versions: 1 2 3 4 5 6 7 8 9 10 11 12 13 14 15 16 17

000
FTUS42 KMHX 301100
TAFEWN
TAF
KEWN 301139Z 3012/3112 03012KT P6SM SCT020 BKN035
     FM301400 02008KT P6SM FEW040 BKN100
     FM302200 03006KT P6SM FEW040 SCT250=

USA.gov is the U.S. government's official web portal to all federal, state and local government web resources and services.